Terminal Aerodrome Forecast
Issued by NWS Cleveland, OH

Home | Current Version | Previous Version | Graphics & Text | Print | Product List | Glossary Off
Versions: 1 2 3 4 5 6 7 8 9 10 11 12 13 14 15 16 17 18 19 20 21

921
FTUS41 KCLE 081735
TAFERI
TAF
KERI 081735Z 0818/0918 25018G30KT 2SM -SHSN OVC020
      TEMPO 0819/0823 1SM -SHSN OVC012
     FM082300 27015G25KT 1 1/2SM -SHSN OVC008
      TEMPO 0900/0904 3/4SM -SHSN OVC004
     FM091600 30012KT 3SM -SHSN OVC012=

USA.gov is the U.S. government's official web portal to all federal, state and local government web resources and services.